createdAt,value
2023-04-25T00:00:00.238Z,4.60
2023-04-25T00:02:27.244Z,3.80
2023-04-25T00:04:54.491Z,4.30
2023-04-25T00:07:21.635Z,4.97
2023-04-25T00:09:48.500Z,4.50
2023-04-25T00:12:16.526Z,4.23
2023-04-25T00:14:43.399Z,4.43
2023-04-25T00:17:10.258Z,4.30
2023-04-25T00:19:38.715Z,3.90
2023-04-25T00:22:06.471Z,4.20
2023-04-25T00:24:33.369Z,4.23
2023-04-25T00:27:00.229Z,5.00
2023-04-25T00:29:27.071Z,4.40
2023-04-25T00:31:54.043Z,3.60
2023-04-25T00:34:21.468Z,4.37
2023-04-25T00:36:48.308Z,4.87
2023-04-25T00:39:15.239Z,4.00
2023-04-25T00:41:42.412Z,4.40
2023-04-25T00:44:12.435Z,4.13
2023-04-25T00:46:41.120Z,4.20
2023-04-25T00:49:08.224Z,4.57
2023-04-25T00:51:36.043Z,5.40
2023-04-25T00:54:03.138Z,4.70
2023-04-25T00:56:30.455Z,4.30
2023-04-25T00:58:58.132Z,5.00
2023-04-25T01:01:25.497Z,4.30
2023-04-25T01:03:55.695Z,4.87
2023-04-25T01:06:23.305Z,4.20
2023-04-25T01:08:50.463Z,4.73
2023-04-25T01:11:17.442Z,5.30
2023-04-25T01:13:44.818Z,4.50
2023-04-25T01:16:11.730Z,4.93
2023-04-25T01:18:42.528Z,4.37
2023-04-25T01:21:13.909Z,5.03
2023-04-25T01:23:42.848Z,4.30
2023-04-25T01:26:12.433Z,4.60
2023-04-25T01:28:44.341Z,5.10
2023-04-25T01:31:13.761Z,4.73
2023-04-25T01:33:40.927Z,4.47
2023-04-25T01:36:08.053Z,4.10
2023-04-25T01:38:36.234Z,4.63
2023-04-25T01:41:03.916Z,5.03
2023-04-25T01:43:30.981Z,5.03
2023-04-25T01:45:58.369Z,5.27
2023-04-25T01:48:25.395Z,4.30
2023-04-25T01:50:52.408Z,4.93
2023-04-25T01:53:19.379Z,4.27
2023-04-25T01:55:46.339Z,4.70
2023-04-25T01:58:13.889Z,4.63
2023-04-25T02:00:41.752Z,4.83
2023-04-25T02:03:09.550Z,4.90
2023-04-25T02:05:41.217Z,5.10
2023-04-25T02:08:10.215Z,4.93
2023-04-25T02:10:37.572Z,4.30
2023-04-25T02:13:06.139Z,4.07
2023-04-25T02:15:33.399Z,4.63
2023-04-25T02:18:03.644Z,4.50
2023-04-25T02:20:32.312Z,3.70
2023-04-25T02:22:59.267Z,4.63
2023-04-25T02:25:26.562Z,4.20
2023-04-25T02:27:53.448Z,4.47
2023-04-25T02:30:20.515Z,4.93
2023-04-25T02:32:47.702Z,4.87
2023-04-25T02:35:14.668Z,5.20
2023-04-25T02:37:43.288Z,4.50
2023-04-25T02:40:10.993Z,6.07
2023-04-25T02:42:37.855Z,5.07
2023-04-25T02:45:05.795Z,4.80
2023-04-25T02:47:33.045Z,5.70
2023-04-25T02:50:00.048Z,4.83
2023-04-25T02:52:27.045Z,5.17
2023-04-25T02:54:53.918Z,5.70
2023-04-25T02:57:20.834Z,6.20
2023-04-25T02:59:47.769Z,5.03
2023-04-25T03:02:14.877Z,4.80
2023-04-25T03:04:41.888Z,6.53
2023-04-25T03:07:09.134Z,5.80
2023-04-25T03:09:36.278Z,4.87
2023-04-25T03:12:03.461Z,5.47
2023-04-25T03:14:30.604Z,5.00
2023-04-25T03:16:57.553Z,5.40
2023-04-25T03:19:24.597Z,4.37
2023-04-25T03:21:51.540Z,4.70
2023-04-25T03:24:18.517Z,5.37
2023-04-25T03:26:45.503Z,5.83
2023-04-25T03:29:12.651Z,5.33
2023-04-25T03:31:39.576Z,5.27
2023-04-25T03:34:06.466Z,5.10
2023-04-25T03:36:33.615Z,5.17
2023-04-25T03:39:00.686Z,4.90
2023-04-25T03:41:27.645Z,5.17
2023-04-25T03:43:54.537Z,4.53
2023-04-25T03:46:21.411Z,4.70
2023-04-25T03:48:48.374Z,5.37
2023-04-25T03:51:15.259Z,4.67
2023-04-25T03:53:42.226Z,4.03
2023-04-25T03:56:10.340Z,4.23
2023-04-25T03:58:37.271Z,5.77
2023-04-25T04:01:08.131Z,4.77
2023-04-25T04:03:39.770Z,4.27
2023-04-25T04:06:09.792Z,4.67
2023-04-25T04:08:36.687Z,3.90
2023-04-25T04:11:03.794Z,4.60
2023-04-25T04:13:31.367Z,4.40
2023-04-25T04:15:58.835Z,4.70
2023-04-25T04:18:25.913Z,4.33
2023-04-25T04:20:52.893Z,3.87
2023-04-25T04:23:21.524Z,4.17
2023-04-25T04:25:48.914Z,4.13
2023-04-25T04:28:16.963Z,4.40
2023-04-25T04:30:46.912Z,4.40
2023-04-25T04:33:15.976Z,3.70
2023-04-25T04:35:43.751Z,4.90
2023-04-25T04:38:11.647Z,3.20
2023-04-25T04:40:38.591Z,3.80
2023-04-25T04:43:05.516Z,3.77
2023-04-25T04:45:32.417Z,3.90
2023-04-25T04:47:59.263Z,4.03
2023-04-25T04:50:27.456Z,4.10
2023-04-25T04:52:55.362Z,3.77
2023-04-25T04:55:22.288Z,4.37
2023-04-25T04:57:49.748Z,4.30
2023-04-25T05:00:16.982Z,3.80
2023-04-25T05:02:44.042Z,4.27
2023-04-25T05:05:11.215Z,4.20
2023-04-25T05:07:38.240Z,4.30
2023-04-25T05:10:06.341Z,4.20
2023-04-25T05:12:34.219Z,4.30
2023-04-25T05:15:02.781Z,4.20
2023-04-25T05:17:29.907Z,3.80
2023-04-25T05:19:56.835Z,4.13
2023-04-25T05:22:24.138Z,4.93
2023-04-25T05:24:53.888Z,4.53
2023-04-25T05:27:22.134Z,5.10
2023-04-25T05:29:49.029Z,4.40
2023-04-25T05:32:16.193Z,4.03
2023-04-25T05:34:43.856Z,5.13
2023-04-25T05:37:10.869Z,4.10
2023-04-25T05:39:37.703Z,4.80
2023-04-25T05:42:04.798Z,4.60
2023-04-25T05:44:32.387Z,4.37
2023-04-25T05:46:59.292Z,5.50
2023-04-25T05:49:26.281Z,5.07
2023-04-25T05:51:53.172Z,4.50
2023-04-25T05:54:20.072Z,5.03
2023-04-25T05:56:46.956Z,5.77
2023-04-25T05:59:13.818Z,5.10
2023-04-25T06:01:41.201Z,4.60
2023-04-25T06:04:08.361Z,4.53
2023-04-25T06:06:35.607Z,5.70
2023-04-25T06:09:02.515Z,5.50
2023-04-25T06:11:29.370Z,5.83
2023-04-25T06:13:56.234Z,5.30
2023-04-25T06:16:23.334Z,4.70
2023-04-25T06:18:50.268Z,4.97
2023-04-25T06:21:17.146Z,5.37
2023-04-25T06:23:44.484Z,4.87
2023-04-25T06:26:11.416Z,5.33
2023-04-25T06:28:38.396Z,5.53
2023-04-25T06:31:05.469Z,4.83
2023-04-25T06:33:32.325Z,7.00
2023-04-25T06:35:59.220Z,5.50
2023-04-25T06:38:26.168Z,5.50
2023-04-25T06:40:53.000Z,5.97
2023-04-25T06:43:19.923Z,5.80
2023-04-25T06:45:48.527Z,5.40
2023-04-25T06:48:16.430Z,5.90
2023-04-25T06:50:43.286Z,5.50
2023-04-25T06:53:10.738Z,5.00
2023-04-25T06:55:37.749Z,5.37
2023-04-25T06:58:04.766Z,5.07
2023-04-25T07:00:32.005Z,5.93
2023-04-25T07:02:59.347Z,5.37
2023-04-25T07:05:26.625Z,5.03
2023-04-25T07:07:53.665Z,5.63
2023-04-25T07:10:22.199Z,5.57
2023-04-25T07:12:49.240Z,5.40
2023-04-25T07:15:16.223Z,5.30
2023-04-25T07:17:43.277Z,5.97
2023-04-25T07:20:11.096Z,5.30
2023-04-25T07:22:38.187Z,5.57
2023-04-25T07:25:06.349Z,5.30
2023-04-25T07:27:34.296Z,5.53
2023-04-25T07:30:01.313Z,6.10
2023-04-25T07:32:28.229Z,6.23
2023-04-25T07:34:55.239Z,5.50
2023-04-25T07:37:22.208Z,5.63
2023-04-25T07:39:49.333Z,4.17
2023-04-25T07:42:16.265Z,5.20
2023-04-25T07:44:43.328Z,5.00
2023-04-25T07:47:11.309Z,5.07
2023-04-25T07:49:38.841Z,4.83
2023-04-25T07:52:07.144Z,4.90
2023-04-25T07:54:34.148Z,5.50
2023-04-25T07:57:01.347Z,6.57
2023-04-25T07:59:30.126Z,5.70
2023-04-25T08:03:53.434Z,6.30
2023-04-25T08:06:20.580Z,6.27
2023-04-25T08:08:47.641Z,5.90
2023-04-25T08:11:14.571Z,6.47
2023-04-25T08:13:41.480Z,5.97
2023-04-25T08:16:08.438Z,6.87
2023-04-25T08:18:35.428Z,7.37
2023-04-25T08:21:02.379Z,6.83
2023-04-25T08:23:29.501Z,6.90
2023-04-25T08:25:56.386Z,6.10
2023-04-25T08:28:23.327Z,6.93
2023-04-25T08:30:50.280Z,4.30
2023-04-25T08:33:17.390Z,4.30
2023-04-25T08:35:45.840Z,3.90
2023-04-25T08:38:12.897Z,3.33
2023-04-25T08:40:41.587Z,2.80
2023-04-25T08:43:12.315Z,3.20
2023-04-25T08:45:42.834Z,3.33
2023-04-25T08:48:17.083Z,3.70
2023-04-25T08:50:55.322Z,3.53
2023-04-25T08:53:33.925Z,3.30
2023-04-25T08:56:03.475Z,3.90
2023-04-25T08:58:31.362Z,3.70
2023-04-25T09:00:58.355Z,3.53
2023-04-25T09:03:25.493Z,3.50
2023-04-25T09:05:53.726Z,4.87
2023-04-25T09:08:21.047Z,3.90
2023-04-25T09:10:47.988Z,4.20
2023-04-25T09:13:27.718Z,4.40
2023-04-25T09:15:59.715Z,2.87
2023-04-25T09:18:35.943Z,3.77
2023-04-25T09:21:14.672Z,3.17
2023-04-25T09:23:49.490Z,3.63
2023-04-25T09:26:20.443Z,2.67
2023-04-25T09:28:48.862Z,2.73
2023-04-25T09:31:26.090Z,3.60
2023-04-25T09:34:04.218Z,3.30
2023-04-25T09:36:31.999Z,3.80
2023-04-25T09:39:01.744Z,3.57
2023-04-25T09:41:28.639Z,4.03
2023-04-25T09:43:59.986Z,4.20
2023-04-25T09:46:37.638Z,4.10
2023-04-25T09:49:09.194Z,4.03
2023-04-25T09:51:36.215Z,4.70
2023-04-25T09:54:04.104Z,4.70
2023-04-25T09:56:38.431Z,4.17
2023-04-25T09:59:07.836Z,4.20
2023-04-25T10:01:37.112Z,3.63
2023-04-25T10:04:07.554Z,4.03
2023-04-25T10:06:39.216Z,3.60
2023-04-25T10:09:08.946Z,4.13
2023-04-25T10:11:37.708Z,3.50
2023-04-25T10:14:06.250Z,3.90
2023-04-25T10:16:34.388Z,3.77
2023-04-25T10:19:03.054Z,3.00
2023-04-25T10:21:34.719Z,2.37
2023-04-25T10:24:03.834Z,2.00
2023-04-25T10:26:31.521Z,2.13
2023-04-25T10:29:04.603Z,3.03
2023-04-25T10:31:32.490Z,2.50
2023-04-25T10:34:01.826Z,2.50
2023-04-25T10:36:33.548Z,2.80
2023-04-25T10:39:12.535Z,3.03
2023-04-25T10:41:56.888Z,2.93
2023-04-25T10:44:27.695Z,3.50
2023-04-25T10:46:58.790Z,3.47
2023-04-25T10:49:43.745Z,4.27
2023-04-25T10:52:19.626Z,3.90
2023-04-25T10:54:59.000Z,4.07
2023-04-25T10:57:47.094Z,3.80
2023-04-25T11:00:34.172Z,3.80
2023-04-25T11:03:17.985Z,3.90
2023-04-25T11:05:57.894Z,3.73
2023-04-25T11:08:52.154Z,3.17
2023-04-25T11:11:20.453Z,3.40
2023-04-25T11:13:51.251Z,3.20
2023-04-25T11:16:27.513Z,3.50
2023-04-25T11:18:58.400Z,3.43
2023-04-25T11:21:32.550Z,3.53
2023-04-25T11:24:01.360Z,3.53
2023-04-25T11:26:28.326Z,3.00
2023-04-25T11:29:01.288Z,3.60
2023-04-25T11:31:28.266Z,4.00
2023-04-25T11:33:58.561Z,3.70
2023-04-25T11:36:26.905Z,4.00
2023-04-25T11:38:55.035Z,3.67
2023-04-25T11:41:23.203Z,3.73
2023-04-25T11:43:52.809Z,3.57
2023-04-25T11:46:21.110Z,3.37
2023-04-25T11:48:48.864Z,3.87
2023-04-25T11:51:16.003Z,4.17
2023-04-25T11:53:45.845Z,3.57
2023-04-25T11:56:15.344Z,3.30
2023-04-25T11:59:02.137Z,3.20
2023-04-25T12:01:36.161Z,3.00
2023-04-25T12:04:26.165Z,3.13
2023-04-25T12:06:56.941Z,2.33
2023-04-25T12:09:33.393Z,2.20
2023-04-25T12:12:03.711Z,2.17
2023-04-25T12:14:35.720Z,2.40
2023-04-25T12:17:08.580Z,2.60
2023-04-25T12:19:41.465Z,2.00
2023-04-25T12:22:25.599Z,2.27
2023-04-25T12:24:54.700Z,2.10
2023-04-25T12:27:21.594Z,1.93
2023-04-25T12:29:55.413Z,2.10
2023-04-25T12:32:22.714Z,2.13
2023-04-25T12:34:49.717Z,2.20
2023-04-25T12:37:16.767Z,1.90
2023-04-25T12:39:43.703Z,2.23
2023-04-25T12:42:12.703Z,2.20
2023-04-25T12:44:40.843Z,2.27
2023-04-25T12:47:07.917Z,2.73
2023-04-25T12:49:34.933Z,2.20
2023-04-25T12:52:01.842Z,1.93
2023-04-25T12:54:28.761Z,2.13
2023-04-25T12:56:56.046Z,1.77
2023-04-25T12:59:23.305Z,2.07
2023-04-25T13:01:50.419Z,1.83
2023-04-25T13:04:17.695Z,1.80
2023-04-25T13:06:44.829Z,2.10
2023-04-25T13:09:13.097Z,1.90
2023-04-25T13:11:40.082Z,1.90
2023-04-25T13:14:07.526Z,2.13
2023-04-25T13:16:34.472Z,1.90
2023-04-25T13:19:01.418Z,1.83
2023-04-25T13:21:33.442Z,1.70
2023-04-25T13:24:00.818Z,1.60
2023-04-25T13:26:27.873Z,1.63
2023-04-25T13:28:54.771Z,2.20
2023-04-25T13:31:21.883Z,1.80
2023-04-25T13:33:49.103Z,1.77
2023-04-25T13:36:16.110Z,2.23
2023-04-25T13:38:44.677Z,1.97
2023-04-25T13:41:14.638Z,2.00
2023-04-25T13:43:41.488Z,2.20
2023-04-25T13:46:09.674Z,2.53
2023-04-25T13:48:39.837Z,2.00
2023-04-25T13:51:06.765Z,2.33
2023-04-25T13:53:33.758Z,1.90
2023-04-25T13:56:01.215Z,1.97
2023-04-25T13:58:28.118Z,2.43
2023-04-25T14:00:55.073Z,2.10
2023-04-25T14:03:22.140Z,2.33
2023-04-25T14:05:49.487Z,2.57
2023-04-25T14:08:16.367Z,2.10
2023-04-25T14:10:43.287Z,2.73
2023-04-25T14:13:12.331Z,2.40
2023-04-25T14:15:39.429Z,2.33
2023-04-25T14:18:06.458Z,2.27
2023-04-25T14:20:33.342Z,2.57
2023-04-25T14:23:00.389Z,2.60
2023-04-25T14:25:28.768Z,2.07
2023-04-25T14:27:55.771Z,2.30
2023-04-25T14:30:22.821Z,2.10
2023-04-25T14:32:52.798Z,2.30
2023-04-25T14:35:19.805Z,2.50
2023-04-25T14:37:46.773Z,2.43
2023-04-25T14:40:16.185Z,2.90
2023-04-25T14:42:43.369Z,2.20
2023-04-25T14:45:10.905Z,2.30
2023-04-25T14:47:38.515Z,2.30
2023-04-25T14:50:09.390Z,2.10
2023-04-25T14:52:36.966Z,2.77
2023-04-25T14:55:08.252Z,2.10
2023-04-25T14:57:36.237Z,2.60
2023-04-25T15:00:07.783Z,2.53
2023-04-25T15:02:35.563Z,2.60
2023-04-25T15:05:04.119Z,2.57
2023-04-25T15:07:31.407Z,3.43
2023-04-25T15:09:58.310Z,2.33
2023-04-25T15:12:27.068Z,3.30
2023-04-25T15:14:54.095Z,2.47
2023-04-25T15:17:21.170Z,2.80
2023-04-25T15:19:48.100Z,2.77
2023-04-25T15:22:15.022Z,2.93
2023-04-25T15:24:42.006Z,3.27
2023-04-25T15:27:09.328Z,3.40
2023-04-25T15:29:36.644Z,2.67
2023-04-25T15:32:03.856Z,3.00
2023-04-25T15:34:30.836Z,2.83
2023-04-25T15:36:58.517Z,3.80
2023-04-25T15:39:25.440Z,3.10
2023-04-25T15:41:52.308Z,3.10
2023-04-25T15:44:19.141Z,3.00
2023-04-25T15:46:46.409Z,3.10
2023-04-25T15:49:13.556Z,3.60
2023-04-25T15:51:40.465Z,2.53
2023-04-25T15:54:07.441Z,3.63
2023-04-25T15:56:34.414Z,3.03
2023-04-25T15:59:01.414Z,3.80
2023-04-25T16:01:30.945Z,3.60
2023-04-25T16:06:27.243Z,3.07
2023-04-25T16:08:55.058Z,3.03
2023-04-25T16:11:22.431Z,3.77
2023-04-25T16:13:50.113Z,3.20
2023-04-25T16:16:17.323Z,2.63
2023-04-25T16:18:44.246Z,2.77
2023-04-25T16:21:17.080Z,2.77
2023-04-25T16:23:44.453Z,2.30
2023-04-25T16:26:11.345Z,3.10
2023-04-25T16:28:38.215Z,2.20
2023-04-25T16:31:05.790Z,2.50
2023-04-25T16:33:35.192Z,2.70
2023-04-25T16:36:02.036Z,2.60
2023-04-25T16:38:28.963Z,2.60
2023-04-25T16:40:55.896Z,2.40
2023-04-25T16:43:22.841Z,2.70
2023-04-25T16:45:49.776Z,2.80
2023-04-25T16:48:19.647Z,2.70
2023-04-25T16:50:46.535Z,2.70
2023-04-25T16:53:13.509Z,2.90
2023-04-25T16:55:40.380Z,3.03
2023-04-25T16:58:08.799Z,2.70
2023-04-25T17:00:37.871Z,2.80
2023-04-25T17:03:05.000Z,3.10
2023-04-25T17:05:32.121Z,2.97
2023-04-25T17:08:00.198Z,3.10
2023-04-25T17:10:28.363Z,3.33
2023-04-25T17:12:55.301Z,2.40
2023-04-25T17:15:22.440Z,3.07
2023-04-25T17:17:49.361Z,3.20
2023-04-25T17:20:16.381Z,3.90
2023-04-25T17:22:44.567Z,2.63
2023-04-25T17:25:11.477Z,2.67
2023-04-25T17:27:38.432Z,4.03
2023-04-25T17:30:08.282Z,3.90
2023-04-25T17:32:35.440Z,3.77
2023-04-25T17:35:02.488Z,2.40
2023-04-25T17:37:29.337Z,3.10
2023-04-25T17:39:56.189Z,3.07
2023-04-25T17:42:23.412Z,3.53
2023-04-25T17:44:50.560Z,3.00
2023-04-25T17:47:17.505Z,4.00
2023-04-25T17:49:44.379Z,2.90
2023-04-25T17:52:11.413Z,3.20
2023-04-25T17:54:38.453Z,3.23
2023-04-25T17:57:05.405Z,4.43
2023-04-25T17:59:32.276Z,3.17
2023-04-25T18:02:00.891Z,2.97
2023-04-25T18:04:27.817Z,3.07
2023-04-25T18:06:55.546Z,2.73
2023-04-25T18:09:23.649Z,3.10
2023-04-25T18:11:53.852Z,3.00
2023-04-25T18:14:22.651Z,3.50
2023-04-25T18:16:53.604Z,3.87
2023-04-25T18:19:21.586Z,3.10
2023-04-25T18:21:54.895Z,3.30
2023-04-25T18:24:26.809Z,3.53
2023-04-25T18:27:00.652Z,3.43
2023-04-25T18:31:58.346Z,3.63
2023-04-25T18:34:27.471Z,4.43
2023-04-25T18:36:56.190Z,4.30
2023-04-25T18:39:24.332Z,3.60
2023-04-25T18:41:55.132Z,3.80
2023-04-25T18:44:25.692Z,4.00
2023-04-25T18:46:52.542Z,3.40
2023-04-25T18:49:19.383Z,3.87
2023-04-25T18:51:46.742Z,5.73
2023-04-25T18:54:13.746Z,4.10
2023-04-25T18:56:41.088Z,3.67
2023-04-25T18:59:07.956Z,3.33
2023-04-25T19:01:35.032Z,3.40
2023-04-25T19:04:05.827Z,6.10
2023-04-25T19:06:33.807Z,4.37
2023-04-25T19:09:01.973Z,4.80
2023-04-25T19:11:29.729Z,5.07
2023-04-25T19:13:56.745Z,4.90
2023-04-25T19:16:25.949Z,7.60
2023-04-25T19:18:56.315Z,5.90
2023-04-25T19:21:23.557Z,3.97
2023-04-25T19:23:54.031Z,3.90
2023-04-25T19:26:22.025Z,4.57
2023-04-25T19:29:14.207Z,4.77
2023-04-25T19:31:44.618Z,3.90
2023-04-25T19:34:13.737Z,3.60
2023-04-25T19:36:42.598Z,3.70
2023-04-25T19:39:10.710Z,3.40
2023-04-25T19:41:38.927Z,3.87
2023-04-25T19:44:09.015Z,3.50
2023-04-25T19:46:37.024Z,4.40
2023-04-25T19:49:08.953Z,4.90
2023-04-25T19:51:37.047Z,4.93
2023-04-25T19:54:04.590Z,4.57
2023-04-25T19:56:31.485Z,5.23
2023-04-25T19:58:58.549Z,4.27
2023-04-25T20:01:26.110Z,4.67
2023-04-25T20:03:53.556Z,4.53
2023-04-25T20:06:20.797Z,4.27
2023-04-25T20:08:47.847Z,10.20
2023-04-25T20:11:15.629Z,6.13
2023-04-25T20:13:42.660Z,5.80
2023-04-25T20:16:09.689Z,5.00
2023-04-25T20:18:36.691Z,5.60
2023-04-25T20:21:03.789Z,4.70
2023-04-25T20:23:30.662Z,3.97
2023-04-25T20:25:57.525Z,3.87
2023-04-25T20:28:24.554Z,4.23
2023-04-25T20:30:51.672Z,4.17
2023-04-25T20:33:23.564Z,3.50
2023-04-25T20:35:50.588Z,4.27
2023-04-25T20:38:17.444Z,4.17
2023-04-25T20:40:44.390Z,4.40
2023-04-25T20:43:12.492Z,4.00
2023-04-25T20:45:40.095Z,3.97
2023-04-25T20:48:07.072Z,4.50
2023-04-25T20:50:34.344Z,3.50
2023-04-25T20:53:01.251Z,2.90
2023-04-25T20:55:28.121Z,4.23
2023-04-25T20:57:55.053Z,4.00
2023-04-25T21:00:27.329Z,3.93
2023-04-25T21:02:57.721Z,3.90
2023-04-25T21:05:24.958Z,3.50
2023-04-25T21:07:52.319Z,3.90
2023-04-25T21:10:19.709Z,4.47
2023-04-25T21:12:49.584Z,4.17
2023-04-25T21:15:19.319Z,3.50
2023-04-25T21:17:47.969Z,3.47
2023-04-25T21:20:20.632Z,4.10
2023-04-25T21:22:53.475Z,3.53
2023-04-25T21:25:28.916Z,3.80
2023-04-25T21:27:56.116Z,3.93
2023-04-25T21:30:25.015Z,4.23
2023-04-25T21:32:53.066Z,3.80
2023-04-25T21:35:22.486Z,3.87
2023-04-25T21:37:51.072Z,3.40
2023-04-25T21:40:18.724Z,3.70
2023-04-25T21:42:51.327Z,3.10
2023-04-25T21:45:19.710Z,3.97
2023-04-25T21:47:48.590Z,3.93
2023-04-25T21:50:17.193Z,3.90
2023-04-25T21:52:44.047Z,4.40
2023-04-25T21:55:11.380Z,3.90
2023-04-25T21:57:38.284Z,4.70
2023-04-25T22:00:20.083Z,3.87
2023-04-25T22:02:51.469Z,4.17
2023-04-25T22:05:21.059Z,3.67
2023-04-25T22:07:50.426Z,3.40
2023-04-25T22:10:18.070Z,3.43
2023-04-25T22:12:45.152Z,3.00
2023-04-25T22:15:17.298Z,3.33
2023-04-25T22:17:44.665Z,3.40
2023-04-25T22:20:13.802Z,3.93
2023-04-25T22:22:41.704Z,4.17
2023-04-25T22:25:11.898Z,4.50
2023-04-25T22:27:41.890Z,4.20
2023-04-25T22:30:15.005Z,4.50
2023-04-25T22:32:42.666Z,3.60
2023-04-25T22:35:10.606Z,4.93
2023-04-25T22:37:37.926Z,4.43
2023-04-25T22:40:06.998Z,4.77
2023-04-25T22:42:42.134Z,4.13
2023-04-25T22:45:10.768Z,4.60
2023-04-25T22:47:39.748Z,3.60
2023-04-25T22:50:13.090Z,4.00
2023-04-25T22:52:41.782Z,4.40
2023-04-25T22:55:10.240Z,4.30
2023-04-25T22:57:41.270Z,4.60
2023-04-25T23:00:19.447Z,5.80
2023-04-25T23:02:47.277Z,4.90
2023-04-25T23:05:15.628Z,4.47
2023-04-25T23:07:44.558Z,4.07
2023-04-25T23:10:12.974Z,4.50
2023-04-25T23:12:40.144Z,3.63
2023-04-25T23:15:08.735Z,4.03
2023-04-25T23:17:36.950Z,4.13
2023-04-25T23:20:10.562Z,4.00
2023-04-25T23:22:38.060Z,3.97
2023-04-25T23:25:07.363Z,3.97
2023-04-25T23:27:34.256Z,3.70
2023-04-25T23:30:01.273Z,3.70
2023-04-25T23:32:28.147Z,4.73
2023-04-25T23:34:55.115Z,3.83
2023-04-25T23:37:22.035Z,3.43
2023-04-25T23:39:51.943Z,4.00
2023-04-25T23:42:20.280Z,4.30
2023-04-25T23:44:47.368Z,4.47
2023-04-25T23:47:17.373Z,4.90
2023-04-25T23:49:45.786Z,4.50
2023-04-25T23:52:12.987Z,4.57
2023-04-25T23:54:40.088Z,4.23
2023-04-25T23:57:06.986Z,4.20
2023-04-25T23:59:34.106Z,5.00
